sensor_id;sensor_type;location;lat;lon;timestamp;pressure;altitude;pressure_sealevel;temperature;humidity
77323;BME280;66384;51.052;9.850;2024-01-10T00:02:17;100008.39;;;-7.11;64.63
77323;BME280;66384;51.052;9.850;2024-01-10T00:04:54;100004.44;;;-7.14;64.66
77323;BME280;66384;51.052;9.850;2024-01-10T00:07:30;99998.17;;;-7.16;64.83
77323;BME280;66384;51.052;9.850;2024-01-10T00:10:08;99993.83;;;-7.16;64.87
77323;BME280;66384;51.052;9.850;2024-01-10T00:12:44;99988.91;;;-7.15;64.71
77323;BME280;66384;51.052;9.850;2024-01-10T00:15:20;99984.05;;;-7.15;64.70
77323;BME280;66384;51.052;9.850;2024-01-10T00:17:56;99984.67;;;-7.17;64.62
77323;BME280;66384;51.052;9.850;2024-01-10T00:20:33;99980.45;;;-7.19;64.73
77323;BME280;66384;51.052;9.850;2024-01-10T00:23:09;99972.05;;;-7.20;64.80
77323;BME280;66384;51.052;9.850;2024-01-10T00:25:45;99966.96;;;-7.22;64.68
77323;BME280;66384;51.052;9.850;2024-01-10T00:28:22;99969.08;;;-7.23;64.90
77323;BME280;66384;51.052;9.850;2024-01-10T00:30:58;99960.70;;;-7.23;64.94
77323;BME280;66384;51.052;9.850;2024-01-10T00:33:34;99961.60;;;-7.21;64.87
77323;BME280;66384;51.052;9.850;2024-01-10T00:36:11;99957.04;;;-7.20;64.94
77323;BME280;66384;51.052;9.850;2024-01-10T00:38:47;99948.76;;;-7.19;64.93
77323;BME280;66384;51.052;9.850;2024-01-10T00:41:23;99954.60;;;-7.20;64.95
77323;BME280;66384;51.052;9.850;2024-01-10T00:44:00;99951.02;;;-7.20;64.81
77323;BME280;66384;51.052;9.850;2024-01-10T00:46:36;99955.67;;;-7.21;64.85
77323;BME280;66384;51.052;9.850;2024-01-10T00:49:13;99958.86;;;-7.20;64.65
77323;BME280;66384;51.052;9.850;2024-01-10T00:51:49;99950.98;;;-7.20;64.76
77323;BME280;66384;51.052;9.850;2024-01-10T00:54:26;99955.71;;;-7.20;64.75
77323;BME280;66384;51.052;9.850;2024-01-10T00:57:02;99957.70;;;-7.20;64.72
77323;BME280;66384;51.052;9.850;2024-01-10T00:59:38;99960.95;;;-7.21;64.64
77323;BME280;66384;51.052;9.850;2024-01-10T01:02:15;99958.59;;;-7.21;64.66
77323;BME280;66384;51.052;9.850;2024-01-10T01:04:51;99956.00;;;-7.22;64.54
77323;BME280;66384;51.052;9.850;2024-01-10T01:07:28;99950.06;;;-7.23;64.66
77323;BME280;66384;51.052;9.850;2024-01-10T01:10:05;99947.45;;;-7.24;64.63
77323;BME280;66384;51.052;9.850;2024-01-10T01:12:42;99948.34;;;-7.24;64.77
77323;BME280;66384;51.052;9.850;2024-01-10T01:15:18;99950.28;;;-7.25;64.66
77323;BME280;66384;51.052;9.850;2024-01-10T01:17:54;99938.70;;;-7.25;64.79
77323;BME280;66384;51.052;9.850;2024-01-10T01:20:32;99935.84;;;-7.24;64.67
77323;BME280;66384;51.052;9.850;2024-01-10T01:23:08;99931.83;;;-7.26;64.85
77323;BME280;66384;51.052;9.850;2024-01-10T01:25:45;99922.84;;;-7.27;64.92
77323;BME280;66384;51.052;9.850;2024-01-10T01:28:21;99924.76;;;-7.29;65.03
77323;BME280;66384;51.052;9.850;2024-01-10T01:30:57;99931.17;;;-7.33;65.10
77323;BME280;66384;51.052;9.850;2024-01-10T01:33:34;99937.36;;;-7.36;65.22
77323;BME280;66384;51.052;9.850;2024-01-10T01:36:12;99930.73;;;-7.37;65.22
77323;BME280;66384;51.052;9.850;2024-01-10T01:38:48;99926.61;;;-7.37;65.09
77323;BME280;66384;51.052;9.850;2024-01-10T01:41:24;99927.20;;;-7.36;65.36
77323;BME280;66384;51.052;9.850;2024-01-10T01:44:01;99930.53;;;-7.35;65.33
77323;BME280;66384;51.052;9.850;2024-01-10T01:46:37;99930.55;;;-7.33;65.28
77323;BME280;66384;51.052;9.850;2024-01-10T01:49:15;99930.78;;;-7.32;65.20
77323;BME280;66384;51.052;9.850;2024-01-10T01:51:51;99932.77;;;-7.32;65.34
77323;BME280;66384;51.052;9.850;2024-01-10T01:54:29;99934.58;;;-7.22;68.09
77323;BME280;66384;51.052;9.850;2024-01-10T01:57:08;99930.85;;;-7.04;68.02
77323;BME280;66384;51.052;9.850;2024-01-10T01:59:44;99927.55;;;-6.89;66.67
77323;BME280;66384;51.052;9.850;2024-01-10T02:02:21;99928.88;;;-6.84;65.57
77323;BME280;66384;51.052;9.850;2024-01-10T02:04:58;99930.00;;;-6.84;65.24
77323;BME280;66384;51.052;9.850;2024-01-10T02:07:35;99931.27;;;-6.85;64.96
77323;BME280;66384;51.052;9.850;2024-01-10T02:10:12;99928.68;;;-6.88;64.71
77323;BME280;66384;51.052;9.850;2024-01-10T02:12:48;99925.48;;;-6.92;64.59
77323;BME280;66384;51.052;9.850;2024-01-10T02:15:26;99929.02;;;-6.98;64.49
77323;BME280;66384;51.052;9.850;2024-01-10T02:18:03;99924.67;;;-7.03;64.45
77323;BME280;66384;51.052;9.850;2024-01-10T02:20:40;99923.30;;;-7.08;64.34
77323;BME280;66384;51.052;9.850;2024-01-10T02:23:18;99928.19;;;-7.11;64.45
77323;BME280;66384;51.052;9.850;2024-01-10T02:25:55;99924.39;;;-7.12;64.44
77323;BME280;66384;51.052;9.850;2024-01-10T02:28:32;99924.22;;;-7.12;64.33
77323;BME280;66384;51.052;9.850;2024-01-10T02:31:08;99915.73;;;-7.13;64.46
77323;BME280;66384;51.052;9.850;2024-01-10T02:33:45;99917.40;;;-7.13;64.57
77323;BME280;66384;51.052;9.850;2024-01-10T02:36:21;99918.95;;;-7.13;64.64
77323;BME280;66384;51.052;9.850;2024-01-10T02:38:58;99915.45;;;-7.13;64.69
77323;BME280;66384;51.052;9.850;2024-01-10T02:41:34;99911.74;;;-7.12;64.43
77323;BME280;66384;51.052;9.850;2024-01-10T02:44:10;99911.14;;;-7.13;64.53
77323;BME280;66384;51.052;9.850;2024-01-10T02:46:47;99907.02;;;-7.13;64.29
77323;BME280;66384;51.052;9.850;2024-01-10T02:49:24;99907.03;;;-7.18;64.49
77323;BME280;66384;51.052;9.850;2024-01-10T02:52:00;99905.31;;;-7.19;64.71
77323;BME280;66384;51.052;9.850;2024-01-10T02:54:36;99907.43;;;-7.20;64.72
77323;BME280;66384;51.052;9.850;2024-01-10T02:57:13;99910.55;;;-7.20;64.68
77323;BME280;66384;51.052;9.850;2024-01-10T02:59:49;99909.52;;;-7.21;64.68
77323;BME280;66384;51.052;9.850;2024-01-10T03:02:26;99909.08;;;-7.22;64.67
77323;BME280;66384;51.052;9.850;2024-01-10T03:05:02;99906.43;;;-7.23;64.55
77323;BME280;66384;51.052;9.850;2024-01-10T03:07:39;99907.34;;;-7.25;64.63
77323;BME280;66384;51.052;9.850;2024-01-10T03:10:15;99907.96;;;-7.28;64.66
77323;BME280;66384;51.052;9.850;2024-01-10T03:12:52;99905.30;;;-7.31;64.73
77323;BME280;66384;51.052;9.850;2024-01-10T03:15:28;99905.77;;;-7.32;64.67
77323;BME280;66384;51.052;9.850;2024-01-10T03:18:04;99899.73;;;-7.32;64.70
77323;BME280;66384;51.052;9.850;2024-01-10T03:20:41;99899.25;;;-7.31;64.60
77323;BME280;66384;51.052;9.850;2024-01-10T03:23:17;99893.33;;;-7.33;64.59
77323;BME280;66384;51.052;9.850;2024-01-10T03:25:53;99892.02;;;-7.34;64.68
77323;BME280;66384;51.052;9.850;2024-01-10T03:28:30;99890.70;;;-7.34;64.87
77323;BME280;66384;51.052;9.850;2024-01-10T03:31:06;99885.70;;;-7.35;65.02
77323;BME280;66384;51.052;9.850;2024-01-10T03:33:43;99881.29;;;-7.37;65.01
77323;BME280;66384;51.052;9.850;2024-01-10T03:36:20;99886.77;;;-7.36;65.01
77323;BME280;66384;51.052;9.850;2024-01-10T03:38:56;99881.04;;;-7.38;65.03
77323;BME280;66384;51.052;9.850;2024-01-10T03:41:32;99875.75;;;-7.37;64.99
77323;BME280;66384;51.052;9.850;2024-01-10T03:44:09;99874.23;;;-7.39;65.01
77323;BME280;66384;51.052;9.850;2024-01-10T03:46:46;99878.61;;;-7.38;65.14
77323;BME280;66384;51.052;9.850;2024-01-10T03:49:22;99879.48;;;-7.38;65.06
77323;BME280;66384;51.052;9.850;2024-01-10T03:51:58;99879.19;;;-7.39;64.93
77323;BME280;66384;51.052;9.850;2024-01-10T03:54:35;99875.48;;;-7.41;65.00
77323;BME280;66384;51.052;9.850;2024-01-10T03:57:12;99874.90;;;-7.46;65.00
77323;BME280;66384;51.052;9.850;2024-01-10T03:59:48;99874.02;;;-7.50;65.15
77323;BME280;66384;51.052;9.850;2024-01-10T04:02:24;99871.84;;;-7.52;65.24
77323;BME280;66384;51.052;9.850;2024-01-10T04:05:01;99877.95;;;-7.54;65.37
77323;BME280;66384;51.052;9.850;2024-01-10T04:07:39;99885.06;;;-7.58;65.42
77323;BME280;66384;51.052;9.850;2024-01-10T04:10:16;99884.89;;;-7.59;65.48
77323;BME280;66384;51.052;9.850;2024-01-10T04:12:52;99882.41;;;-7.61;65.50
77323;BME280;66384;51.052;9.850;2024-01-10T04:15:28;99885.95;;;-7.61;65.51
77323;BME280;66384;51.052;9.850;2024-01-10T04:18:05;99889.55;;;-7.62;65.58
77323;BME280;66384;51.052;9.850;2024-01-10T04:20:43;99898.31;;;-7.63;65.49
77323;BME280;66384;51.052;9.850;2024-01-10T04:23:20;99893.61;;;-7.63;65.72
77323;BME280;66384;51.052;9.850;2024-01-10T04:25:56;99897.77;;;-7.60;65.65
77323;BME280;66384;51.052;9.850;2024-01-10T04:28:33;99894.08;;;-7.60;65.56
77323;BME280;66384;51.052;9.850;2024-01-10T04:31:12;99885.83;;;-7.61;65.59
77323;BME280;66384;51.052;9.850;2024-01-10T04:33:49;99889.28;;;-7.60;65.78
77323;BME280;66384;51.052;9.850;2024-01-10T04:36:25;99893.89;;;-7.58;65.73
77323;BME280;66384;51.052;9.850;2024-01-10T04:39:01;99889.65;;;-7.56;65.68
77323;BME280;66384;51.052;9.850;2024-01-10T04:41:38;99895.11;;;-7.53;65.63
77323;BME280;66384;51.052;9.850;2024-01-10T04:44:14;99893.33;;;-7.53;65.50
77323;BME280;66384;51.052;9.850;2024-01-10T04:46:51;99892.33;;;-7.51;65.57
77323;BME280;66384;51.052;9.850;2024-01-10T04:49:27;99895.83;;;-7.50;65.56
77323;BME280;66384;51.052;9.850;2024-01-10T04:52:03;99893.32;;;-7.50;65.52
77323;BME280;66384;51.052;9.850;2024-01-10T04:54:40;99894.60;;;-7.47;65.62
77323;BME280;66384;51.052;9.850;2024-01-10T04:57:16;99897.13;;;-7.46;65.69
77323;BME280;66384;51.052;9.850;2024-01-10T04:59:52;99896.02;;;-7.44;65.58
77323;BME280;66384;51.052;9.850;2024-01-10T05:02:29;99887.61;;;-7.43;65.50
77323;BME280;66384;51.052;9.850;2024-01-10T05:05:06;99887.54;;;-7.41;65.44
77323;BME280;66384;51.052;9.850;2024-01-10T05:07:43;99886.39;;;-7.39;65.46
77323;BME280;66384;51.052;9.850;2024-01-10T05:10:19;99887.59;;;-7.37;65.53
77323;BME280;66384;51.052;9.850;2024-01-10T05:12:55;99890.77;;;-7.34;65.54
77323;BME280;66384;51.052;9.850;2024-01-10T05:15:32;99888.41;;;-7.34;65.50
77323;BME280;66384;51.052;9.850;2024-01-10T05:18:09;99887.48;;;-7.32;65.55
77323;BME280;66384;51.052;9.850;2024-01-10T05:20:45;99880.85;;;-7.30;65.44
77323;BME280;66384;51.052;9.850;2024-01-10T05:23:21;99880.95;;;-7.29;65.36
77323;BME280;66384;51.052;9.850;2024-01-10T05:25:58;99881.14;;;-7.28;65.48
77323;BME280;66384;51.052;9.850;2024-01-10T05:28:35;99876.75;;;-7.25;65.21
77323;BME280;66384;51.052;9.850;2024-01-10T05:31:12;99872.41;;;-7.22;65.10
77323;BME280;66384;51.052;9.850;2024-01-10T05:33:49;99873.19;;;-7.20;65.10
77323;BME280;66384;51.052;9.850;2024-01-10T05:36:27;99872.10;;;-7.18;64.95
77323;BME280;66384;51.052;9.850;2024-01-10T05:39:03;99873.54;;;-7.15;65.08
77323;BME280;66384;51.052;9.850;2024-01-10T05:41:39;99868.05;;;-7.15;64.88
77323;BME280;66384;51.052;9.850;2024-01-10T05:44:19;99870.27;;;-7.16;64.89
77323;BME280;66384;51.052;9.850;2024-01-10T05:46:55;99871.04;;;-7.18;65.00
77323;BME280;66384;51.052;9.850;2024-01-10T05:49:33;99869.80;;;-7.20;64.79
77323;BME280;66384;51.052;9.850;2024-01-10T05:52:09;99872.38;;;-7.25;64.97
77323;BME280;66384;51.052;9.850;2024-01-10T05:54:46;99871.39;;;-7.25;65.05
77323;BME280;66384;51.052;9.850;2024-01-10T05:57:22;99863.08;;;-7.28;64.89
77323;BME280;66384;51.052;9.850;2024-01-10T05:59:58;99860.61;;;-7.30;64.90
77323;BME280;66384;51.052;9.850;2024-01-10T06:02:36;99861.84;;;-7.32;65.24
77323;BME280;66384;51.052;9.850;2024-01-10T06:05:13;99866.63;;;-7.30;65.08
77323;BME280;66384;51.052;9.850;2024-01-10T06:07:49;99861.05;;;-7.31;65.16
77323;BME280;66384;51.052;9.850;2024-01-10T06:10:26;99858.83;;;-7.30;65.08
77323;BME280;66384;51.052;9.850;2024-01-10T06:13:06;99854.20;;;-7.29;65.21
77323;BME280;66384;51.052;9.850;2024-01-10T06:15:42;99856.00;;;-7.28;65.11
77323;BME280;66384;51.052;9.850;2024-01-10T06:18:19;99865.09;;;-7.26;65.16
77323;BME280;66384;51.052;9.850;2024-01-10T06:20:55;99861.63;;;-7.27;65.04
77323;BME280;66384;51.052;9.850;2024-01-10T06:23:31;99866.09;;;-7.26;65.15
77323;BME280;66384;51.052;9.850;2024-01-10T06:26:08;99861.36;;;-7.26;64.99
77323;BME280;66384;51.052;9.850;2024-01-10T06:28:45;99861.08;;;-7.28;64.96
77323;BME280;66384;51.052;9.850;2024-01-10T06:31:21;99861.41;;;-7.28;65.17
77323;BME280;66384;51.052;9.850;2024-01-10T06:33:57;99852.92;;;-7.27;65.13
77323;BME280;66384;51.052;9.850;2024-01-10T06:36:34;99854.02;;;-7.28;64.94
77323;BME280;66384;51.052;9.850;2024-01-10T06:39:11;99854.99;;;-7.30;64.85
77323;BME280;66384;51.052;9.850;2024-01-10T06:41:49;99855.23;;;-7.33;64.95
77323;BME280;66384;51.052;9.850;2024-01-10T06:44:26;99854.55;;;-7.37;64.96
77323;BME280;66384;51.052;9.850;2024-01-10T06:47:02;99854.20;;;-7.40;65.04
77323;BME280;66384;51.052;9.850;2024-01-10T06:49:39;99853.81;;;-7.42;65.02
77323;BME280;66384;51.052;9.850;2024-01-10T06:52:15;99855.36;;;-7.42;65.15
77323;BME280;66384;51.052;9.850;2024-01-10T06:54:51;99858.49;;;-7.39;65.22
77323;BME280;66384;51.052;9.850;2024-01-10T06:57:28;99860.28;;;-7.38;65.18
77323;BME280;66384;51.052;9.850;2024-01-10T07:00:05;99861.51;;;-7.38;65.20
77323;BME280;66384;51.052;9.850;2024-01-10T07:02:44;99866.14;;;-7.35;65.13
77323;BME280;66384;51.052;9.850;2024-01-10T07:05:22;99868.10;;;-7.35;65.07
77323;BME280;66384;51.052;9.850;2024-01-10T07:07:59;99869.36;;;-7.36;65.09
77323;BME280;66384;51.052;9.850;2024-01-10T07:10:36;99871.69;;;-7.34;65.20
77323;BME280;66384;51.052;9.850;2024-01-10T07:13:13;99873.41;;;-7.33;65.04
77323;BME280;66384;51.052;9.850;2024-01-10T07:15:49;99877.10;;;-7.33;64.96
77323;BME280;66384;51.052;9.850;2024-01-10T07:18:26;99876.14;;;-7.34;65.07
77323;BME280;66384;51.052;9.850;2024-01-10T07:21:02;99872.20;;;-7.37;65.12
77323;BME280;66384;51.052;9.850;2024-01-10T07:23:39;99876.04;;;-7.39;65.13
77323;BME280;66384;51.052;9.850;2024-01-10T07:26:15;99873.64;;;-7.39;65.29
77323;BME280;66384;51.052;9.850;2024-01-10T07:28:51;99873.50;;;-7.42;65.05
77323;BME280;66384;51.052;9.850;2024-01-10T07:31:28;99874.91;;;-7.44;65.19
77323;BME280;66384;51.052;9.850;2024-01-10T07:34:04;99876.91;;;-7.46;65.30
77323;BME280;66384;51.052;9.850;2024-01-10T07:36:46;99880.45;;;-7.47;65.25
77323;BME280;66384;51.052;9.850;2024-01-10T07:39:22;99880.24;;;-7.47;65.35
77323;BME280;66384;51.052;9.850;2024-01-10T07:41:58;99877.06;;;-7.47;65.39
77323;BME280;66384;51.052;9.850;2024-01-10T07:44:35;99882.74;;;-7.45;65.48
77323;BME280;66384;51.052;9.850;2024-01-10T07:47:12;99879.02;;;-7.41;65.35
77323;BME280;66384;51.052;9.850;2024-01-10T07:49:48;99882.54;;;-7.35;65.45
77323;BME280;66384;51.052;9.850;2024-01-10T07:52:24;99884.06;;;-7.31;65.32
77323;BME280;66384;51.052;9.850;2024-01-10T07:55:01;99886.73;;;-7.30;65.37
77323;BME280;66384;51.052;9.850;2024-01-10T07:57:38;99885.84;;;-7.29;65.35
77323;BME280;66384;51.052;9.850;2024-01-10T08:00:17;99886.65;;;-7.29;65.31
77323;BME280;66384;51.052;9.850;2024-01-10T08:02:54;99885.39;;;-7.28;65.51
77323;BME280;66384;51.052;9.850;2024-01-10T08:05:31;99887.23;;;-7.26;65.44
77323;BME280;66384;51.052;9.850;2024-01-10T08:08:08;99887.46;;;-7.23;65.44
77323;BME280;66384;51.052;9.850;2024-01-10T08:10:46;99886.84;;;-7.22;65.45
77323;BME280;66384;51.052;9.850;2024-01-10T08:13:23;99889.62;;;-7.18;65.40
77323;BME280;66384;51.052;9.850;2024-01-10T08:16:00;99888.83;;;-7.16;65.36
77323;BME280;66384;51.052;9.850;2024-01-10T08:18:37;99889.13;;;-7.15;65.40
77323;BME280;66384;51.052;9.850;2024-01-10T08:21:14;99891.23;;;-7.14;65.36
77323;BME280;66384;51.052;9.850;2024-01-10T08:23:51;99893.84;;;-7.12;65.37
77323;BME280;66384;51.052;9.850;2024-01-10T08:26:27;99896.77;;;-7.08;65.31
77323;BME280;66384;51.052;9.850;2024-01-10T08:29:04;99893.89;;;-7.05;65.38
77323;BME280;66384;51.052;9.850;2024-01-10T08:31:40;99893.75;;;-7.00;65.37
77323;BME280;66384;51.052;9.850;2024-01-10T08:34:17;99890.40;;;-6.95;65.49
77323;BME280;66384;51.052;9.850;2024-01-10T08:36:54;99888.29;;;-6.87;65.35
77323;BME280;66384;51.052;9.850;2024-01-10T08:39:30;99885.45;;;-6.78;65.16
77323;BME280;66384;51.052;9.850;2024-01-10T08:42:07;99883.59;;;-6.69;64.98
77323;BME280;66384;51.052;9.850;2024-01-10T08:44:43;99883.92;;;-6.63;65.04
77323;BME280;66384;51.052;9.850;2024-01-10T08:47:19;99884.19;;;-6.59;64.73
77323;BME280;66384;51.052;9.850;2024-01-10T08:49:56;99886.38;;;-6.55;64.92
77323;BME280;66384;51.052;9.850;2024-01-10T08:52:33;99882.70;;;-6.52;64.74
77323;BME280;66384;51.052;9.850;2024-01-10T08:55:11;99885.73;;;-6.48;64.58
77323;BME280;66384;51.052;9.850;2024-01-10T08:57:48;99882.06;;;-6.45;64.69
77323;BME280;66384;51.052;9.850;2024-01-10T09:00:25;99888.60;;;-6.41;64.62
77323;BME280;66384;51.052;9.850;2024-01-10T09:03:03;99885.27;;;-6.36;64.53
77323;BME280;66384;51.052;9.850;2024-01-10T09:05:41;99893.87;;;-6.29;64.53
77323;BME280;66384;51.052;9.850;2024-01-10T09:08:34;99890.36;;;-6.25;64.33
77323;BME280;66384;51.052;9.850;2024-01-10T09:11:10;99888.98;;;-6.22;64.37
77323;BME280;66384;51.052;9.850;2024-01-10T09:13:47;99890.69;;;-6.19;64.51
77323;BME280;66384;51.052;9.850;2024-01-10T09:16:23;99891.92;;;-6.15;64.38
77323;BME280;66384;51.052;9.850;2024-01-10T09:19:00;99890.31;;;-6.13;64.38
77323;BME280;66384;51.052;9.850;2024-01-10T09:21:38;99889.48;;;-6.10;64.39
77323;BME280;66384;51.052;9.850;2024-01-10T09:24:15;99887.18;;;-6.07;64.27
77323;BME280;66384;51.052;9.850;2024-01-10T09:27:03;99883.55;;;-6.01;64.39
77323;BME280;66384;51.052;9.850;2024-01-10T09:29:41;99879.94;;;-5.99;64.31
77323;BME280;66384;51.052;9.850;2024-01-10T09:32:17;99880.89;;;-5.95;64.30
77323;BME280;66384;51.052;9.850;2024-01-10T09:34:54;99882.85;;;-5.90;64.19
77323;BME280;66384;51.052;9.850;2024-01-10T09:37:31;99883.80;;;-5.86;64.21
77323;BME280;66384;51.052;9.850;2024-01-10T09:40:10;99876.48;;;-5.84;64.31
77323;BME280;66384;51.052;9.850;2024-01-10T09:42:51;99872.74;;;-5.82;64.10
77323;BME280;66384;51.052;9.850;2024-01-10T09:45:24;99870.63;;;-5.80;64.18
77323;BME280;66384;51.052;9.850;2024-01-10T09:48:02;99871.89;;;-5.74;64.14
77323;BME280;66384;51.052;9.850;2024-01-10T09:50:39;99868.10;;;-5.70;64.22
77323;BME280;66384;51.052;9.850;2024-01-10T09:53:21;99870.80;;;-5.66;64.29
77323;BME280;66384;51.052;9.850;2024-01-10T09:55:58;99869.79;;;-5.61;64.09
77323;BME280;66384;51.052;9.850;2024-01-10T09:58:35;99871.43;;;-5.57;63.93
77323;BME280;66384;51.052;9.850;2024-01-10T10:01:10;99871.84;;;-5.52;63.89
77323;BME280;66384;51.052;9.850;2024-01-10T10:03:48;99860.86;;;-5.45;63.78
77323;BME280;66384;51.052;9.850;2024-01-10T10:06:26;99859.43;;;-5.39;63.57
77323;BME280;66384;51.052;9.850;2024-01-10T10:09:03;99861.30;;;-5.32;63.59
77323;BME280;66384;51.052;9.850;2024-01-10T10:11:39;99865.80;;;-5.26;63.37
77323;BME280;66384;51.052;9.850;2024-01-10T10:14:21;99865.63;;;-5.20;63.36
77323;BME280;66384;51.052;9.850;2024-01-10T10:17:16;99859.41;;;-5.14;63.33
77323;BME280;66384;51.052;9.850;2024-01-10T10:19:53;99859.69;;;-5.05;63.20
77323;BME280;66384;51.052;9.850;2024-01-10T10:22:39;99863.11;;;-4.99;62.81
77323;BME280;66384;51.052;9.850;2024-01-10T10:25:18;99859.40;;;-4.95;62.58
77323;BME280;66384;51.052;9.850;2024-01-10T10:27:55;99863.17;;;-4.87;62.72
77323;BME280;66384;51.052;9.850;2024-01-10T10:30:33;99859.36;;;-4.81;62.64
77323;BME280;66384;51.052;9.850;2024-01-10T10:33:11;99858.30;;;-4.73;62.63
77323;BME280;66384;51.052;9.850;2024-01-10T10:35:48;99854.88;;;-4.66;62.37
77323;BME280;66384;51.052;9.850;2024-01-10T10:38:27;99859.91;;;-4.63;61.96
77323;BME280;66384;51.052;9.850;2024-01-10T10:41:00;99862.66;;;-4.59;61.76
77323;BME280;66384;51.052;9.850;2024-01-10T10:43:39;99861.41;;;-4.53;61.89
77323;BME280;66384;51.052;9.850;2024-01-10T10:46:15;99863.34;;;-4.47;61.79
77323;BME280;66384;51.052;9.850;2024-01-10T10:48:56;99866.61;;;-4.40;61.73
77323;BME280;66384;51.052;9.850;2024-01-10T10:51:39;99860.75;;;-4.33;61.47
77323;BME280;66384;51.052;9.850;2024-01-10T10:54:17;99855.73;;;-4.26;61.22
77323;BME280;66384;51.052;9.850;2024-01-10T10:56:51;99849.48;;;-4.20;61.22
77323;BME280;66384;51.052;9.850;2024-01-10T10:59:28;99840.45;;;-4.14;60.93
77323;BME280;66384;51.052;9.850;2024-01-10T11:02:03;99843.77;;;-4.07;60.63
77323;BME280;66384;51.052;9.850;2024-01-10T11:04:42;99840.92;;;-4.02;60.60
77323;BME280;66384;51.052;9.850;2024-01-10T11:07:20;99839.65;;;-3.98;60.55
77323;BME280;66384;51.052;9.850;2024-01-10T11:09:57;99841.98;;;-3.93;60.55
77323;BME280;66384;51.052;9.850;2024-01-10T11:12:53;99837.20;;;-3.87;60.35
77323;BME280;66384;51.052;9.850;2024-01-10T11:15:52;99835.95;;;-3.81;60.20
77323;BME280;66384;51.052;9.850;2024-01-10T11:18:58;99829.15;;;-3.77;59.89
77323;BME280;66384;51.052;9.850;2024-01-10T11:21:48;99826.70;;;-3.70;60.03
77323;BME280;66384;51.052;9.850;2024-01-10T11:24:30;99829.58;;;-3.61;60.07
77323;BME280;66384;51.052;9.850;2024-01-10T11:27:16;99829.10;;;-3.52;59.96
77323;BME280;66384;51.052;9.850;2024-01-10T11:29:52;99826.55;;;-3.42;60.04
77323;BME280;66384;51.052;9.850;2024-01-10T11:32:30;99829.76;;;-3.32;59.74
77323;BME280;66384;51.052;9.850;2024-01-10T11:35:18;99828.63;;;-3.23;59.26
77323;BME280;66384;51.052;9.850;2024-01-10T11:37:55;99829.24;;;-3.13;59.23
77323;BME280;66384;51.052;9.850;2024-01-10T11:40:56;99821.96;;;-3.03;59.02
77323;BME280;66384;51.052;9.850;2024-01-10T11:43:33;99823.27;;;-2.93;59.00
77323;BME280;66384;51.052;9.850;2024-01-10T11:46:12;99818.02;;;-2.83;58.84
77323;BME280;66384;51.052;9.850;2024-01-10T11:48:49;99812.75;;;-2.75;58.62
77323;BME280;66384;51.052;9.850;2024-01-10T11:51:28;99808.70;;;-2.67;58.46
77323;BME280;66384;51.052;9.850;2024-01-10T11:54:06;99809.88;;;-2.62;58.20
77323;BME280;66384;51.052;9.850;2024-01-10T11:56:43;99806.33;;;-2.57;58.22
77323;BME280;66384;51.052;9.850;2024-01-10T11:59:17;99805.43;;;-2.51;58.05
77323;BME280;66384;51.052;9.850;2024-01-10T12:01:54;99799.83;;;-2.46;57.96
77323;BME280;66384;51.052;9.850;2024-01-10T12:04:31;99795.20;;;-2.43;57.83
77323;BME280;66384;51.052;9.850;2024-01-10T12:07:20;99791.88;;;-2.39;57.70
77323;BME280;66384;51.052;9.850;2024-01-10T12:09:57;99786.05;;;-2.37;57.56
77323;BME280;66384;51.052;9.850;2024-01-10T12:12:32;99783.98;;;-2.32;57.44
77323;BME280;66384;51.052;9.850;2024-01-10T12:15:09;99779.48;;;-2.27;57.44
77323;BME280;66384;51.052;9.850;2024-01-10T12:17:45;99775.00;;;-2.23;57.26
77323;BME280;66384;51.052;9.850;2024-01-10T12:20:22;99769.73;;;-2.18;57.22
77323;BME280;66384;51.052;9.850;2024-01-10T12:22:59;99771.73;;;-2.13;57.13
77323;BME280;66384;51.052;9.850;2024-01-10T12:25:37;99771.61;;;-2.07;57.18
77323;BME280;66384;51.052;9.850;2024-01-10T12:28:18;99768.80;;;-2.01;57.22
77323;BME280;66384;51.052;9.850;2024-01-10T12:30:55;99762.40;;;-1.94;56.83
77323;BME280;66384;51.052;9.850;2024-01-10T12:33:33;99765.27;;;-1.86;57.00
77323;BME280;66384;51.052;9.850;2024-01-10T12:36:11;99762.66;;;-1.80;56.84
77323;BME280;66384;51.052;9.850;2024-01-10T12:38:48;99763.91;;;-1.73;56.70
77323;BME280;66384;51.052;9.850;2024-01-10T12:41:25;99768.00;;;-1.68;56.61
77323;BME280;66384;51.052;9.850;2024-01-10T12:44:03;99766.21;;;-1.61;56.49
77323;BME280;66384;51.052;9.850;2024-01-10T12:46:52;99762.50;;;-1.55;56.41
77323;BME280;66384;51.052;9.850;2024-01-10T12:49:28;99757.13;;;-1.48;56.46
77323;BME280;66384;51.052;9.850;2024-01-10T12:52:05;99757.38;;;-1.37;56.85
77323;BME280;66384;51.052;9.850;2024-01-10T12:54:48;99756.75;;;-1.22;58.54
77323;BME280;66384;51.052;9.850;2024-01-10T12:57:24;99760.94;;;-1.02;58.84
77323;BME280;66384;51.052;9.850;2024-01-10T13:00:04;99759.02;;;-0.81;58.52
77323;BME280;66384;51.052;9.850;2024-01-10T13:02:42;99758.75;;;-0.61;58.08
77323;BME280;66384;51.052;9.850;2024-01-10T13:05:20;99760.17;;;-0.44;56.51
77323;BME280;66384;51.052;9.850;2024-01-10T13:07:56;99760.95;;;-0.37;55.20
77323;BME280;66384;51.052;9.850;2024-01-10T13:10:35;99768.77;;;-0.35;54.89
77323;BME280;66384;51.052;9.850;2024-01-10T13:13:12;99764.35;;;-0.33;54.51
77323;BME280;66384;51.052;9.850;2024-01-10T13:15:49;99767.83;;;-0.32;54.11
77323;BME280;66384;51.052;9.850;2024-01-10T13:18:26;99763.17;;;-0.31;54.13
77323;BME280;66384;51.052;9.850;2024-01-10T13:21:03;99766.58;;;-0.29;54.05
77323;BME280;66384;51.052;9.850;2024-01-10T13:23:40;99769.64;;;-0.24;53.87
77323;BME280;66384;51.052;9.850;2024-01-10T13:26:16;99767.30;;;-0.22;53.68
77323;BME280;66384;51.052;9.850;2024-01-10T13:28:53;99764.69;;;-0.19;53.38
77323;BME280;66384;51.052;9.850;2024-01-10T13:31:30;99764.70;;;-0.17;53.09
77323;BME280;66384;51.052;9.850;2024-01-10T13:34:07;99763.25;;;-0.14;52.86
77323;BME280;66384;51.052;9.850;2024-01-10T13:36:45;99763.92;;;-0.10;52.83
77323;BME280;66384;51.052;9.850;2024-01-10T13:39:21;99759.40;;;-0.08;52.78
77323;BME280;66384;51.052;9.850;2024-01-10T13:41:58;99758.23;;;-0.04;52.79
77323;BME280;66384;51.052;9.850;2024-01-10T13:44:35;99758.05;;;0.02;53.56
77323;BME280;66384;51.052;9.850;2024-01-10T13:47:12;99759.17;;;0.12;53.26
77323;BME280;66384;51.052;9.850;2024-01-10T13:49:49;99765.63;;;0.18;52.94
77323;BME280;66384;51.052;9.850;2024-01-10T13:52:26;99771.91;;;0.25;52.76
77323;BME280;66384;51.052;9.850;2024-01-10T13:55:03;99768.93;;;0.27;52.21